Time;durP1;ratioP1;P1;durP2;ratioP2;P2;SDS_P1;SDS_P2;PMS_P1;PMS_P2;Temp;Humidity;BMP_temperature;BMP_pressure;BME280_temperature;BME280_humidity;BME280_pressure;Samples;Min_cycle;Max_cycle;Signal;HPM_P1;HPM_P2
2023/07/04 00:01:19;;;;;;;5.80;4.10;;;;;;;;;;5021225;28;20050;-86
2023/07/04 00:04:53;;;;;;;7.75;4.43;;;;;;;;;;5007747;28;20050;-87
2023/07/04 00:08:01;;;;;;;6.63;4.10;;;;;;;;;;5007911;28;20042;-86
2023/07/04 00:11:06;;;;;;;9.65;4.18;;;;;;;;;;5007534;28;20399;-86
2023/07/04 00:14:03;;;;;;;6.18;4.05;;;;;;;;;;5007392;28;20041;-86
2023/07/04 00:16:49;;;;;;;7.53;4.25;;;;;;;;;;5007553;28;20050;-86
2023/07/04 00:19:35;;;;;;;5.18;3.67;;;;;;;;;;5015740;28;20046;-86
2023/07/04 00:22:20;;;;;;;6.45;3.90;;;;;;;;;;5021482;28;20053;-86
2023/07/04 00:25:06;;;;;;;5.72;4.60;;;;;;;;;;5000614;28;20057;-86
2023/07/04 00:27:52;;;;;;;6.05;4.80;;;;;;;;;;5006789;28;20049;-86
2023/07/04 00:30:38;;;;;;;6.90;4.72;;;;;;;;;;4998192;28;20038;-87
2023/07/04 00:33:26;;;;;;;5.53;4.80;;;;;;;;;;5021067;28;20403;-87
2023/07/04 00:36:16;;;;;;;10.45;4.65;;;;;;;;;;5001247;28;20476;-87
2023/07/04 00:39:02;;;;;;;5.78;5.18;;;;;;;;;;5020584;28;20484;-86
2023/07/04 00:41:47;;;;;;;6.53;4.68;;;;;;;;;;5014116;28;20038;-87
2023/07/04 00:44:44;;;;;;;9.00;4.55;;;;;;;;;;5020964;28;20049;-87
2023/07/04 00:47:43;;;;;;;7.15;4.97;;;;;;;;;;5013799;28;20042;-86
2023/07/04 00:50:31;;;;;;;8.38;4.35;;;;;;;;;;5017466;28;20029;-88
2023/07/04 00:53:17;;;;;;;8.07;4.30;;;;;;;;;;5007537;28;20489;-86
2023/07/04 00:56:05;;;;;;;4.90;4.10;;;;;;;;;;5015240;28;20050;-86
2023/07/04 00:58:54;;;;;;;6.28;4.70;;;;;;;;;;5006326;28;20046;-86
2023/07/04 01:01:42;;;;;;;5.55;4.80;;;;;;;;;;5006215;28;20395;-86
2023/07/04 01:04:31;;;;;;;7.57;4.75;;;;;;;;;;4999980;28;20395;-86
2023/07/04 01:07:35;;;;;;;5.97;4.32;;;;;;;;;;5019989;28;20054;-87
2023/07/04 01:10:46;;;;;;;5.57;4.75;;;;;;;;;;4999992;28;20041;-87
2023/07/04 01:13:39;;;;;;;5.70;4.72;;;;;;;;;;5006402;28;20046;-87
2023/07/04 01:16:28;;;;;;;7.05;4.55;;;;;;;;;;5006521;28;20054;-87
2023/07/04 01:19:25;;;;;;;6.05;4.97;;;;;;;;;;5006878;28;20045;-87
2023/07/04 01:22:31;;;;;;;8.15;4.78;;;;;;;;;;4999895;28;20399;-87
2023/07/04 01:26:19;;;;;;;7.90;4.90;;;;;;;;;;5002726;28;20042;-87
2023/07/04 01:29:05;;;;;;;7.20;4.38;;;;;;;;;;5025214;28;20054;-87
2023/07/04 01:31:54;;;;;;;5.22;4.45;;;;;;;;;;5008327;28;20045;-85
2023/07/04 01:34:39;;;;;;;5.55;4.78;;;;;;;;;;5005895;28;20398;-84
2023/07/04 01:37:29;;;;;;;7.35;4.90;;;;;;;;;;5015633;28;20054;-85
2023/07/04 01:40:20;;;;;;;7.85;5.20;;;;;;;;;;5006688;28;20037;-86
2023/07/04 01:43:06;;;;;;;6.43;4.97;;;;;;;;;;5021473;28;20053;-85
2023/07/04 01:45:52;;;;;;;10.25;5.35;;;;;;;;;;5007779;28;20471;-84
2023/07/04 01:48:37;;;;;;;8.63;4.97;;;;;;;;;;5019645;28;20046;-85
2023/07/04 01:51:39;;;;;;;9.90;7.22;;;;;;;;;;4999505;28;20483;-84
2023/07/04 01:54:24;;;;;;;18.75;8.77;;;;;;;;;;5005879;28;20367;-85
2023/07/04 01:57:10;;;;;;;14.65;5.68;;;;;;;;;;4993526;28;20046;-88
2023/07/04 01:59:59;;;;;;;16.30;7.50;;;;;;;;;;5028100;28;20057;-86
2023/07/04 02:02:47;;;;;;;9.45;5.40;;;;;;;;;;5012394;28;20041;-84
2023/07/04 02:05:36;;;;;;;8.13;5.28;;;;;;;;;;5024131;28;20479;-88
2023/07/04 02:12:39;;;;;;;9.15;6.32;;;;;;;;;;5018475;28;20047;-84
2023/07/04 02:15:24;;;;;;;10.00;6.47;;;;;;;;;;5017067;28;20050;-85
2023/07/04 02:18:09;;;;;;;7.90;5.55;;;;;;;;;;5006671;28;20042;-85
2023/07/04 02:20:55;;;;;;;6.70;5.57;;;;;;;;;;5017351;28;20050;-85
2023/07/04 02:23:41;;;;;;;10.70;5.95;;;;;;;;;;5017659;28;20495;-85
2023/07/04 02:26:26;;;;;;;6.90;5.57;;;;;;;;;;5023369;28;20046;-86
2023/07/04 02:29:12;;;;;;;7.03;5.80;;;;;;;;;;5016226;28;20042;-85
2023/07/04 02:31:58;;;;;;;10.90;5.63;;;;;;;;;;5010812;28;20041;-85
2023/07/04 02:34:44;;;;;;;8.10;6.00;;;;;;;;;;5021811;28;20072;-85
2023/07/04 02:37:33;;;;;;;8.10;6.10;;;;;;;;;;5023968;28;20041;-84
2023/07/04 02:40:18;;;;;;;6.80;5.85;;;;;;;;;;5017602;28;20046;-85
2023/07/04 02:43:04;;;;;;;11.15;6.88;;;;;;;;;;5009694;28;20046;-85
2023/07/04 02:45:49;;;;;;;10.57;8.18;;;;;;;;;;5017301;28;20045;-85
2023/07/04 02:48:35;;;;;;;9.38;7.72;;;;;;;;;;5022897;28;20054;-85
2023/07/04 02:51:22;;;;;;;9.77;7.88;;;;;;;;;;5009162;28;20042;-85
2023/07/04 02:54:07;;;;;;;14.50;7.45;;;;;;;;;;5016675;28;20049;-85
2023/07/04 02:56:54;;;;;;;9.65;6.75;;;;;;;;;;5022763;28;20037;-84
2023/07/04 02:59:39;;;;;;;8.02;6.55;;;;;;;;;;5022693;28;20046;-84
2023/07/04 03:02:25;;;;;;;11.30;7.38;;;;;;;;;;5040275;28;20050;-85
2023/07/04 03:05:12;;;;;;;8.07;6.03;;;;;;;;;;5024839;28;20414;-85
2023/07/04 03:07:58;;;;;;;8.50;5.88;;;;;;;;;;5008188;28;20062;-85
2023/07/04 03:10:46;;;;;;;10.52;5.72;;;;;;;;;;5002462;28;20401;-85
2023/07/04 03:13:33;;;;;;;7.15;5.85;;;;;;;;;;5008622;28;20046;-85
2023/07/04 03:16:20;;;;;;;10.50;7.63;;;;;;;;;;5022550;28;20046;-85
2023/07/04 03:19:05;;;;;;;11.57;7.68;;;;;;;;;;5009620;28;20050;-85
2023/07/04 03:21:51;;;;;;;9.00;6.32;;;;;;;;;;5022727;28;20046;-85
2023/07/04 03:24:38;;;;;;;8.25;6.03;;;;;;;;;;5010042;28;20042;-85
2023/07/04 03:27:23;;;;;;;11.18;6.10;;;;;;;;;;5016922;28;20041;-85
2023/07/04 03:30:11;;;;;;;11.45;6.60;;;;;;;;;;5008333;28;20041;-85
2023/07/04 03:33:02;;;;;;;6.32;5.22;;;;;;;;;;5023679;28;20045;-84
2023/07/04 03:35:49;;;;;;;8.20;5.13;;;;;;;;;;4977987;28;20053;-86
2023/07/04 03:38:35;;;;;;;7.75;5.35;;;;;;;;;;5016417;28;20049;-83
2023/07/04 03:41:20;;;;;;;7.78;5.90;;;;;;;;;;5008078;28;20475;-84
2023/07/04 03:44:10;;;;;;;6.90;5.80;;;;;;;;;;5007926;28;20045;-84
2023/07/04 03:46:55;;;;;;;7.90;6.00;;;;;;;;;;5008052;28;20050;-85
2023/07/04 03:49:41;;;;;;;8.38;5.93;;;;;;;;;;5009049;28;20041;-84
2023/07/04 03:52:26;;;;;;;11.95;7.07;;;;;;;;;;5008037;28;20046;-85
2023/07/04 03:55:12;;;;;;;11.07;6.45;;;;;;;;;;5007758;28;20046;-86
2023/07/04 03:57:58;;;;;;;7.70;6.28;;;;;;;;;;5016595;28;20042;-85
2023/07/04 04:00:50;;;;;;;9.10;6.28;;;;;;;;;;5007431;28;20046;-85
2023/07/04 04:03:38;;;;;;;8.45;6.15;;;;;;;;;;5007489;28;20050;-85
2023/07/04 04:06:23;;;;;;;8.82;6.80;;;;;;;;;;5007404;28;20041;-85
2023/07/04 04:09:10;;;;;;;9.80;6.97;;;;;;;;;;5015681;28;20045;-85
2023/07/04 04:11:55;;;;;;;13.18;7.55;;;;;;;;;;5016567;28;20042;-85
2023/07/04 04:14:41;;;;;;;10.73;8.25;;;;;;;;;;5026337;28;20029;-84
2023/07/04 04:17:27;;;;;;;11.63;8.15;;;;;;;;;;5046989;28;20062;-85
2023/07/04 04:20:13;;;;;;;12.32;8.20;;;;;;;;;;5018282;28;20050;-86
2023/07/04 04:22:58;;;;;;;13.60;9.10;;;;;;;;;;5014981;28;20050;-85
2023/07/04 04:25:45;;;;;;;11.93;7.30;;;;;;;;;;5015445;28;20034;-86
2023/07/04 04:28:31;;;;;;;9.18;7.13;;;;;;;;;;5000504;28;20045;-86
2023/07/04 04:31:17;;;;;;;13.75;6.80;;;;;;;;;;5000690;28;20399;-86
2023/07/04 04:34:05;;;;;;;11.48;6.60;;;;;;;;;;5007501;28;20049;-86
2023/07/04 04:36:51;;;;;;;10.77;6.32;;;;;;;;;;5006876;28;20045;-86
2023/07/04 04:39:37;;;;;;;11.57;6.25;;;;;;;;;;5006693;28;20054;-86
2023/07/04 04:42:23;;;;;;;9.77;6.95;;;;;;;;;;5020041;28;20045;-86
2023/07/04 04:45:11;;;;;;;14.63;7.75;;;;;;;;;;5014782;28;20057;-86
2023/07/04 04:47:56;;;;;;;15.35;7.80;;;;;;;;;;5006437;28;20050;-86
2023/07/04 04:50:46;;;;;;;13.35;6.47;;;;;;;;;;5021153;28;20390;-86
2023/07/04 04:53:31;;;;;;;15.05;7.57;;;;;;;;;;5014961;28;20038;-86
2023/07/04 04:56:17;;;;;;;9.35;6.32;;;;;;;;;;4999247;28;20050;-85
2023/07/04 04:59:03;;;;;;;8.98;5.78;;;;;;;;;;5006714;28;20037;-86
2023/07/04 05:01:48;;;;;;;17.88;6.10;;;;;;;;;;5012979;28;20038;-86
2023/07/04 05:04:33;;;;;;;10.30;6.57;;;;;;;;;;4999829;28;20037;-86
2023/07/04 05:07:23;;;;;;;13.27;6.32;;;;;;;;;;5000115;28;20037;-85
2023/07/04 05:10:10;;;;;;;11.02;5.50;;;;;;;;;;5006264;28;20399;-85
2023/07/04 05:12:57;;;;;;;13.88;6.32;;;;;;;;;;5019158;28;20018;-84
2023/07/04 05:15:43;;;;;;;12.75;5.90;;;;;;;;;;5014580;28;20038;-85
2023/07/04 05:18:29;;;;;;;8.65;5.30;;;;;;;;;;5013687;28;20041;-85
2023/07/04 05:21:16;;;;;;;7.47;5.05;;;;;;;;;;5005818;28;20403;-85
2023/07/04 05:24:02;;;;;;;11.20;5.65;;;;;;;;;;5014421;28;20049;-85
2023/07/04 05:26:48;;;;;;;9.40;5.30;;;;;;;;;;5006206;28;20042;-85
2023/07/04 05:29:34;;;;;;;7.90;5.32;;;;;;;;;;5014394;28;20046;-85
2023/07/04 05:32:19;;;;;;;11.43;5.00;;;;;;;;;;5014044;28;20034;-84
2023/07/04 05:35:05;;;;;;;12.65;5.47;;;;;;;;;;5012767;28;20049;-85
2023/07/04 05:37:51;;;;;;;13.23;5.45;;;;;;;;;;5006033;28;20046;-86
2023/07/04 05:40:40;;;;;;;15.00;5.70;;;;;;;;;;5013412;28;20053;-85
2023/07/04 05:43:26;;;;;;;7.50;4.50;;;;;;;;;;5005008;28;20084;-86
2023/07/04 05:46:12;;;;;;;19.92;6.80;;;;;;;;;;5011887;28;20045;-86
2023/07/04 05:48:58;;;;;;;21.58;7.85;;;;;;;;;;5005804;28;20038;-86
2023/07/04 05:51:43;;;;;;;9.73;5.40;;;;;;;;;;5004511;28;20390;-86
2023/07/04 05:54:29;;;;;;;8.32;5.07;;;;;;;;;;5011747;28;20455;-85
2023/07/04 05:57:15;;;;;;;10.40;5.10;;;;;;;;;;5003592;28;20058;-85
2023/07/04 06:00:00;;;;;;;8.23;3.85;;;;;;;;;;4996839;28;20411;-84
2023/07/04 06:02:48;;;;;;;10.90;4.82;;;;;;;;;;5012032;28;20050;-85
2023/07/04 06:05:39;;;;;;;9.80;4.25;;;;;;;;;;5012670;28;20038;-86
2023/07/04 06:08:24;;;;;;;8.82;4.75;;;;;;;;;;5004524;28;20419;-87
2023/07/04 06:11:21;;;;;;;7.93;4.50;;;;;;;;;;5000798;28;20041;-84
2023/07/04 06:14:31;;;;;;;13.40;4.72;;;;;;;;;;4998870;28;20049;-86
2023/07/04 06:17:54;;;;;;;9.38;4.45;;;;;;;;;;5014262;28;20041;-86
2023/07/04 06:21:29;;;;;;;;;;;;;;;;;;;;;
2023/07/04 06:24:25;;;;;;;12.88;5.63;;;;;;;;;;5015027;28;20407;-87
2023/07/04 06:27:10;;;;;;;7.18;4.35;;;;;;;;;;5014587;28;20046;-85
2023/07/04 06:29:56;;;;;;;5.15;4.30;;;;;;;;;;5007034;28;20041;-86
2023/07/04 06:32:41;;;;;;;9.73;4.50;;;;;;;;;;5013651;28;20037;-85
2023/07/04 06:35:27;;;;;;;7.22;4.47;;;;;;;;;;5000184;28;20042;-85
2023/07/04 06:38:31;;;;;;;8.50;4.30;;;;;;;;;;5006439;28;20049;-86
2023/07/04 06:45:17;;;;;;;11.95;4.55;;;;;;;;;;5006311;28;20046;-86
2023/07/04 06:48:18;;;;;;;9.50;4.60;;;;;;;;;;5007027;28;20042;-87
2023/07/04 06:51:34;;;;;;;8.98;4.65;;;;;;;;;;5003192;28;20042;-85
2023/07/04 06:54:23;;;;;;;6.85;4.32;;;;;;;;;;5005391;28;20042;-85
2023/07/04 06:57:24;;;;;;;6.30;4.03;;;;;;;;;;4998369;28;20049;-86
2023/07/04 07:00:17;;;;;;;6.13;4.38;;;;;;;;;;5005369;28;20491;-87
2023/07/04 07:03:05;;;;;;;4.85;3.70;;;;;;;;;;5005049;28;20038;-86
2023/07/04 07:05:50;;;;;;;10.13;3.95;;;;;;;;;;5008967;28;20049;-87
2023/07/04 07:12:58;;;;;;;7.97;4.25;;;;;;;;;;5016597;28;20479;-84
2023/07/04 07:59:49;;;;;;;6.18;4.63;;;;;;;;;;4996239;28;20058;-76
2023/07/04 08:02:34;;;;;;;7.25;4.90;;;;;;;;;;4996086;28;20046;-78
2023/07/04 08:05:19;;;;;;;6.53;4.68;;;;;;;;;;4996075;28;20480;-78
2023/07/04 08:08:05;;;;;;;10.23;4.63;;;;;;;;;;4996344;28;20386;-76
2023/07/04 08:10:51;;;;;;;7.38;4.60;;;;;;;;;;5002342;28;20042;-76
2023/07/04 08:13:36;;;;;;;6.35;4.45;;;;;;;;;;4995875;28;20043;-79
2023/07/04 08:16:28;;;;;;;7.13;4.70;;;;;;;;;;4995827;28;20042;-78
2023/07/04 08:19:15;;;;;;;7.53;4.70;;;;;;;;;;4994776;28;20046;-77
2023/07/04 08:22:01;;;;;;;9.63;5.00;;;;;;;;;;4996065;28;20046;-77
2023/07/04 08:24:46;;;;;;;8.65;5.50;;;;;;;;;;4995537;28;20491;-78
2023/07/04 08:27:32;;;;;;;8.27;4.93;;;;;;;;;;4994643;28;20054;-78
2023/07/04 08:30:18;;;;;;;11.85;4.97;;;;;;;;;;4993863;28;20049;-79
2023/07/04 08:33:03;;;;;;;5.75;4.25;;;;;;;;;;4993320;28;20451;-77
2023/07/04 08:35:55;;;;;;;9.02;4.82;;;;;;;;;;4999655;28;20054;-80
2023/07/04 08:38:43;;;;;;;8.57;5.05;;;;;;;;;;4993551;28;20042;-78
2023/07/04 08:41:58;;;;;;;9.35;5.50;;;;;;;;;;4993162;28;20050;-80
2023/07/04 08:44:46;;;;;;;7.88;5.07;;;;;;;;;;4999739;28;20042;-78
2023/07/04 08:47:32;;;;;;;6.97;4.72;;;;;;;;;;4993136;28;20054;-81
2023/07/04 08:50:31;;;;;;;13.00;5.50;;;;;;;;;;4992605;28;20472;-78
2023/07/04 08:53:19;;;;;;;9.05;4.82;;;;;;;;;;4995091;28;20058;-78
2023/07/04 08:56:13;;;;;;;9.48;4.47;;;;;;;;;;5008646;28;20049;-78
2023/07/04 08:59:02;;;;;;;5.40;4.15;;;;;;;;;;5014777;28;20387;-79
2023/07/04 09:01:56;;;;;;;12.95;4.95;;;;;;;;;;5014415;28;20046;-79
2023/07/04 09:04:57;;;;;;;7.30;4.38;;;;;;;;;;5014467;28;20038;-77
2023/07/04 09:07:45;;;;;;;6.20;4.47;;;;;;;;;;5014774;28;20491;-77
2023/07/04 09:10:42;;;;;;;6.20;4.40;;;;;;;;;;5014380;28;20046;-77
2023/07/04 09:13:38;;;;;;;6.65;4.50;;;;;;;;;;5006354;28;20061;-77
2023/07/04 09:16:37;;;;;;;5.78;4.05;;;;;;;;;;5013318;28;20132;-80
2023/07/04 09:19:23;;;;;;;9.02;4.45;;;;;;;;;;5014033;28;20037;-77
2023/07/04 09:22:09;;;;;;;8.38;4.38;;;;;;;;;;5014066;28;20042;-76
2023/07/04 09:24:54;;;;;;;5.13;3.67;;;;;;;;;;5014022;28;20041;-77
2023/07/04 09:27:40;;;;;;;6.55;3.75;;;;;;;;;;5013853;28;20042;-79
2023/07/04 09:30:26;;;;;;;6.95;3.90;;;;;;;;;;5018642;28;20057;-79
2023/07/04 09:33:14;;;;;;;5.25;3.38;;;;;;;;;;5023801;28;20064;-78
2023/07/04 09:35:59;;;;;;;4.88;3.95;;;;;;;;;;5006128;28;20037;-79
2023/07/04 09:38:53;;;;;;;7.13;3.60;;;;;;;;;;5006475;28;20487;-81
2023/07/04 09:41:40;;;;;;;12.98;3.97;;;;;;;;;;5014469;28;20406;-80
2023/07/04 09:44:28;;;;;;;4.63;3.65;;;;;;;;;;5014550;28;20033;-80
2023/07/04 09:47:27;;;;;;;3.92;3.47;;;;;;;;;;5014130;28;20045;-81
2023/07/04 09:50:15;;;;;;;3.95;3.25;;;;;;;;;;5014037;28;20054;-78
2023/07/04 09:53:19;;;;;;;8.20;3.25;;;;;;;;;;5020097;28;20419;-78
2023/07/04 09:56:05;;;;;;;4.47;3.27;;;;;;;;;;5013649;28;20050;-77
2023/07/04 09:59:09;;;;;;;7.00;3.22;;;;;;;;;;5020317;28;20276;-78
2023/07/04 10:02:10;;;;;;;3.97;2.72;;;;;;;;;;5020327;28;20038;-79
2023/07/04 10:04:56;;;;;;;4.75;3.25;;;;;;;;;;5013407;28;20058;-80
2023/07/04 10:07:41;;;;;;;5.63;3.08;;;;;;;;;;5020845;28;20471;-80
2023/07/04 10:10:28;;;;;;;5.82;3.35;;;;;;;;;;5014039;28;20038;-79
2023/07/04 10:13:13;;;;;;;6.35;3.08;;;;;;;;;;5018901;28;20038;-81
2023/07/04 10:15:59;;;;;;;6.82;2.90;;;;;;;;;;5013337;28;20041;-77
2023/07/04 10:18:44;;;;;;;4.85;2.90;;;;;;;;;;5013432;28;20041;-79
2023/07/04 10:21:30;;;;;;;4.07;3.17;;;;;;;;;;5013536;28;20038;-78
2023/07/04 10:24:18;;;;;;;5.72;3.08;;;;;;;;;;5013470;28;20391;-80
2023/07/04 10:27:10;;;;;;;6.45;3.10;;;;;;;;;;5013574;28;20050;-79
2023/07/04 10:29:59;;;;;;;3.45;2.97;;;;;;;;;;5013177;28;20046;-77
2023/07/04 10:33:13;;;;;;;6.20;2.83;;;;;;;;;;5013756;28;20042;-78
2023/07/04 10:36:00;;;;;;;3.85;2.75;;;;;;;;;;5020146;28;20038;-79
2023/07/04 10:38:49;;;;;;;4.28;3.05;;;;;;;;;;5021278;28;20050;-77
2023/07/04 10:41:56;;;;;;;3.63;2.60;;;;;;;;;;5023742;28;20487;-80
2023/07/04 10:44:46;;;;;;;3.38;2.85;;;;;;;;;;5024117;28;20041;-80
2023/07/04 10:47:34;;;;;;;3.90;3.10;;;;;;;;;;5023958;28;20479;-76
2023/07/04 10:50:25;;;;;;;7.90;3.13;;;;;;;;;;5017227;28;20494;-74
2023/07/04 10:53:12;;;;;;;4.32;2.53;;;;;;;;;;5017031;28;20046;-75
2023/07/04 10:56:14;;;;;;;3.30;2.70;;;;;;;;;;5016604;28;20053;-75
2023/07/04 10:59:06;;;;;;;3.42;2.65;;;;;;;;;;5017157;28;20049;-74
2023/07/04 11:02:17;;;;;;;4.28;2.75;;;;;;;;;;5023415;28;20042;-74
2023/07/04 11:05:14;;;;;;;3.65;2.80;;;;;;;;;;5023479;28;20042;-76
2023/07/04 11:08:02;;;;;;;5.68;2.92;;;;;;;;;;5016564;28;20054;-75
2023/07/04 11:10:56;;;;;;;4.95;2.78;;;;;;;;;;5023457;28;20042;-77
2023/07/04 11:13:49;;;;;;;4.20;2.85;;;;;;;;;;5023454;28;20042;-74
2023/07/04 11:16:39;;;;;;;6.47;3.05;;;;;;;;;;5016631;28;20041;-75
2023/07/04 11:19:34;;;;;;;4.88;2.70;;;;;;;;;;5001112;28;20046;-75
2023/07/04 11:22:20;;;;;;;4.72;3.22;;;;;;;;;;5016425;28;20403;-77
2023/07/04 11:25:47;;;;;;;5.43;3.00;;;;;;;;;;5016723;28;20045;-80
2023/07/04 11:28:35;;;;;;;6.10;3.05;;;;;;;;;;5014074;28;20045;-77
2023/07/04 11:31:30;;;;;;;4.88;3.53;;;;;;;;;;5016047;28;20046;-77
2023/07/04 11:34:19;;;;;;;3.85;3.15;;;;;;;;;;5015513;28;20038;-78
2023/07/04 11:37:06;;;;;;;3.67;2.88;;;;;;;;;;5022403;28;20037;-77
2023/07/04 11:39:54;;;;;;;4.78;3.20;;;;;;;;;;5022632;28;20487;-77
2023/07/04 11:42:47;;;;;;;3.38;3.05;;;;;;;;;;5022594;28;20050;-78
2023/07/04 11:45:33;;;;;;;6.55;3.30;;;;;;;;;;5015956;28;20034;-79
2023/07/04 11:48:18;;;;;;;9.45;3.40;;;;;;;;;;5016287;28;20053;-77
2023/07/04 11:51:06;;;;;;;5.07;3.38;;;;;;;;;;5015668;28;20041;-78
2023/07/04 11:53:54;;;;;;;7.28;3.42;;;;;;;;;;5017267;28;20042;-78
2023/07/04 11:56:42;;;;;;;4.47;2.80;;;;;;;;;;5015190;28;20057;-78
2023/07/04 11:59:42;;;;;;;4.50;2.92;;;;;;;;;;5022543;28;20042;-79
2023/07/04 12:02:29;;;;;;;5.78;3.50;;;;;;;;;;5022297;28;20054;-78
2023/07/04 12:05:47;;;;;;;3.85;3.15;;;;;;;;;;5015823;28;20054;-81
2023/07/04 12:08:47;;;;;;;3.63;3.20;;;;;;;;;;5012513;28;20038;-78
2023/07/04 12:11:42;;;;;;;4.82;3.30;;;;;;;;;;5022265;28;20037;-83
2023/07/04 12:14:31;;;;;;;4.43;3.28;;;;;;;;;;5015373;28;20054;-78
2023/07/04 12:17:17;;;;;;;5.82;3.00;;;;;;;;;;5015346;28;20049;-79
2023/07/04 12:20:08;;;;;;;4.45;3.08;;;;;;;;;;5014799;28;20054;-79
2023/07/04 12:23:12;;;;;;;3.28;2.78;;;;;;;;;;5022020;28;20075;-78
2023/07/04 12:26:02;;;;;;;7.35;3.50;;;;;;;;;;5015219;28;20046;-78
2023/07/04 12:28:47;;;;;;;5.43;3.08;;;;;;;;;;5015512;28;20050;-80
2023/07/04 12:31:33;;;;;;;12.98;3.60;;;;;;;;;;5021980;28;20037;-81
2023/07/04 12:34:26;;;;;;;3.75;3.20;;;;;;;;;;5015017;28;20479;-77
2023/07/04 12:37:19;;;;;;;6.47;3.33;;;;;;;;;;5015146;28;20049;-78
2023/07/04 12:40:05;;;;;;;6.63;3.42;;;;;;;;;;5001241;28;20045;-78
2023/07/04 12:42:51;;;;;;;4.63;3.38;;;;;;;;;;5015231;28;20383;-78
2023/07/04 12:45:36;;;;;;;5.50;3.40;;;;;;;;;;5014789;28;20479;-78
2023/07/04 12:48:23;;;;;;;4.63;3.13;;;;;;;;;;5021540;28;20479;-78
2023/07/04 12:51:13;;;;;;;5.70;3.40;;;;;;;;;;5014885;28;20037;-78
2023/07/04 12:54:01;;;;;;;7.20;3.13;;;;;;;;;;5014843;28;20042;-79
2023/07/04 12:56:47;;;;;;;4.15;3.10;;;;;;;;;;5014439;28;20053;-77
2023/07/04 12:59:35;;;;;;;6.55;3.35;;;;;;;;;;5014602;28;20050;-76
2023/07/04 13:02:27;;;;;;;4.10;3.20;;;;;;;;;;5013926;28;20395;-77
2023/07/04 13:05:14;;;;;;;4.70;3.47;;;;;;;;;;5014521;28;20042;-76
2023/07/04 13:08:00;;;;;;;4.90;3.22;;;;;;;;;;5014555;28;20049;-76
2023/07/04 13:10:48;;;;;;;4.95;3.58;;;;;;;;;;5014372;28;20041;-77
2023/07/04 13:13:44;;;;;;;4.63;2.95;;;;;;;;;;5020752;28;20037;-76
2023/07/04 13:16:32;;;;;;;5.95;3.60;;;;;;;;;;5014449;28;20037;-76
2023/07/04 13:19:20;;;;;;;10.40;3.47;;;;;;;;;;5014167;28;20050;-77
2023/07/04 13:22:18;;;;;;;3.83;3.03;;;;;;;;;;5014014;28;20037;-76
2023/07/04 13:25:34;;;;;;;4.30;3.10;;;;;;;;;;5014616;28;20045;-80
2023/07/04 13:28:32;;;;;;;4.47;3.17;;;;;;;;;;5014637;28;20053;-76
2023/07/04 13:31:19;;;;;;;4.53;2.80;;;;;;;;;;5014677;28;20042;-78
2023/07/04 13:34:14;;;;;;;3.83;2.83;;;;;;;;;;5014353;28;20042;-79
2023/07/04 13:37:02;;;;;;;4.45;3.20;;;;;;;;;;5014372;28;20042;-77
2023/07/04 13:39:47;;;;;;;5.50;3.05;;;;;;;;;;5014196;28;20046;-77
2023/07/04 13:42:33;;;;;;;7.78;3.22;;;;;;;;;;5013918;28;20411;-76
2023/07/04 13:45:19;;;;;;;4.25;2.90;;;;;;;;;;5020730;28;20045;-77
2023/07/04 13:48:04;;;;;;;3.40;3.10;;;;;;;;;;5013987;28;20046;-79
2023/07/04 13:50:50;;;;;;;3.67;2.78;;;;;;;;;;5014164;28;20038;-77
2023/07/04 13:53:35;;;;;;;4.72;3.20;;;;;;;;;;5013905;28;20042;-77
2023/07/04 13:56:21;;;;;;;5.38;3.65;;;;;;;;;;5013560;28;20046;-83
2023/07/04 13:59:07;;;;;;;5.05;3.28;;;;;;;;;;5013679;28;20045;-77
2023/07/04 14:01:53;;;;;;;6.57;3.60;;;;;;;;;;5020286;28;20041;-80
2023/07/04 14:04:38;;;;;;;6.70;2.97;;;;;;;;;;5013825;28;20057;-80
2023/07/04 14:07:24;;;;;;;5.43;3.25;;;;;;;;;;5020529;28;20042;-79
2023/07/04 14:10:11;;;;;;;5.93;3.25;;;;;;;;;;5013854;28;20049;-80
2023/07/04 14:12:56;;;;;;;5.35;3.40;;;;;;;;;;5021924;28;20053;-79
2023/07/04 14:15:42;;;;;;;5.35;3.30;;;;;;;;;;5020108;28;20049;-80
2023/07/04 14:18:27;;;;;;;8.82;3.70;;;;;;;;;;5020077;28;20038;-78
2023/07/04 14:21:15;;;;;;;6.82;3.20;;;;;;;;;;5027127;28;20053;-80
2023/07/04 14:24:01;;;;;;;11.23;4.30;;;;;;;;;;5026304;28;20049;-79
2023/07/04 14:26:46;;;;;;;6.82;4.25;;;;;;;;;;5026805;28;20045;-78
2023/07/04 14:29:32;;;;;;;15.23;8.48;;;;;;;;;;5026997;28;20041;-79
2023/07/04 14:32:17;;;;;;;16.02;9.57;;;;;;;;;;5020232;28;20049;-79
2023/07/04 14:35:05;;;;;;;19.98;10.80;;;;;;;;;;5020385;28;20046;-78
2023/07/04 14:37:50;;;;;;;10.98;6.10;;;;;;;;;;5019946;28;20050;-78
2023/07/04 14:40:40;;;;;;;7.53;4.63;;;;;;;;;;5026687;28;20403;-79
2023/07/04 14:43:25;;;;;;;8.18;4.03;;;;;;;;;;5019291;28;20050;-78
2023/07/04 14:46:11;;;;;;;10.18;3.90;;;;;;;;;;5026266;28;20422;-77
2023/07/04 14:52:55;;;;;;;10.10;4.50;;;;;;;;;;5020277;28;20045;-81
2023/07/04 14:55:40;;;;;;;8.98;4.78;;;;;;;;;;5023216;28;20054;-78
2023/07/04 14:58:27;;;;;;;10.95;4.60;;;;;;;;;;5012209;28;20487;-78
2023/07/04 15:01:17;;;;;;;8.98;4.97;;;;;;;;;;5020610;28;20050;-78
2023/07/04 15:04:03;;;;;;;10.55;5.47;;;;;;;;;;5011442;28;20045;-78
2023/07/04 15:06:49;;;;;;;9.95;5.20;;;;;;;;;;5019668;28;20042;-80
2023/07/04 15:09:35;;;;;;;11.15;4.93;;;;;;;;;;5019994;28;20046;-80
2023/07/04 15:12:20;;;;;;;12.30;5.00;;;;;;;;;;5026338;28;20049;-78
2023/07/04 15:15:06;;;;;;;12.13;5.60;;;;;;;;;;5019544;28;20046;-79
2023/07/04 15:17:51;;;;;;;13.88;5.70;;;;;;;;;;5026259;28;20046;-79
2023/07/04 15:20:36;;;;;;;14.10;6.72;;;;;;;;;;5011144;28;20045;-78
2023/07/04 15:23:22;;;;;;;14.60;7.50;;;;;;;;;;5020265;28;20468;-78
2023/07/04 15:26:08;;;;;;;24.08;8.00;;;;;;;;;;5020871;28;20479;-79
2023/07/04 15:28:56;;;;;;;48.53;17.52;;;;;;;;;;5016508;28;20042;-78
2023/07/04 15:31:42;;;;;;;42.95;18.15;;;;;;;;;;5016679;28;20038;-78
2023/07/04 15:34:27;;;;;;;53.42;17.80;;;;;;;;;;5016588;28;20041;-78
2023/07/04 15:37:16;;;;;;;33.78;13.95;;;;;;;;;;5022450;28;20042;-79
2023/07/04 15:40:04;;;;;;;30.48;12.75;;;;;;;;;;5014638;28;20045;-80
2023/07/04 15:42:51;;;;;;;24.48;9.00;;;;;;;;;;5015464;28;20034;-78
2023/07/04 15:45:36;;;;;;;21.42;8.77;;;;;;;;;;5022817;28;20046;-77
2023/07/04 15:48:22;;;;;;;14.75;8.68;;;;;;;;;;5007960;28;20479;-77
2023/07/04 15:51:10;;;;;;;18.35;10.85;;;;;;;;;;5015952;28;20049;-77
2023/07/04 15:53:55;;;;;;;24.13;11.48;;;;;;;;;;5000206;28;20038;-77
2023/07/04 15:56:40;;;;;;;16.83;9.05;;;;;;;;;;5015104;28;20045;-77
2023/07/04 15:59:26;;;;;;;21.95;10.15;;;;;;;;;;5015743;28;20046;-78
2023/07/04 16:02:12;;;;;;;27.20;10.45;;;;;;;;;;5022672;28;20042;-77
2023/07/04 16:04:57;;;;;;;34.92;4.95;;;;;;;;;;5015591;28;20046;-76
2023/07/04 16:07:43;;;;;;;13.15;4.93;;;;;;;;;;5015714;28;20145;-76
2023/07/04 16:10:30;;;;;;;8.77;3.97;;;;;;;;;;5015495;28;20045;-74
2023/07/04 16:13:15;;;;;;;10.18;4.10;;;;;;;;;;5022004;28;20041;-75
2023/07/04 16:16:04;;;;;;;11.07;4.07;;;;;;;;;;5015470;28;20046;-75
2023/07/04 16:18:56;;;;;;;14.73;4.63;;;;;;;;;;5015911;28;20046;-77
2023/07/04 16:21:41;;;;;;;10.77;3.63;;;;;;;;;;5016215;28;20394;-75
2023/07/04 16:24:27;;;;;;;10.35;3.50;;;;;;;;;;5015604;28;20049;-74
2023/07/04 16:27:12;;;;;;;13.60;6.65;;;;;;;;;;5001826;28;20046;-76
2023/07/04 16:29:58;;;;;;;6.90;4.20;;;;;;;;;;5022010;28;20046;-75
2023/07/04 16:32:43;;;;;;;4.95;3.00;;;;;;;;;;5014178;28;20042;-75
2023/07/04 16:35:29;;;;;;;5.03;3.03;;;;;;;;;;5013941;28;20058;-75
2023/07/04 16:38:14;;;;;;;6.88;3.00;;;;;;;;;;5014973;28;20038;-76
2023/07/04 16:41:08;;;;;;;4.55;2.42;;;;;;;;;;5014942;28;20038;-77
2023/07/04 16:43:55;;;;;;;3.90;2.58;;;;;;;;;;5015642;28;20038;-77
2023/07/04 16:46:41;;;;;;;9.00;3.78;;;;;;;;;;5015057;28;20049;-74
2023/07/04 16:49:26;;;;;;;7.90;3.53;;;;;;;;;;5006914;28;20053;-75
2023/07/04 16:52:11;;;;;;;11.25;3.72;;;;;;;;;;5014372;28;20436;-74
2023/07/04 16:54:57;;;;;;;9.20;4.85;;;;;;;;;;5005355;28;20062;-75
2023/07/04 16:57:42;;;;;;;11.05;5.50;;;;;;;;;;5014945;28;20045;-75
2023/07/04 17:00:28;;;;;;;12.25;6.20;;;;;;;;;;5014753;28;20038;-76
2023/07/04 17:03:14;;;;;;;16.80;7.57;;;;;;;;;;5014646;28;20483;-76
2023/07/04 17:06:09;;;;;;;10.80;4.75;;;;;;;;;;5014847;28;20049;-76
2023/07/04 17:08:54;;;;;;;11.05;4.55;;;;;;;;;;5014004;28;20395;-78
2023/07/04 17:11:41;;;;;;;7.45;4.60;;;;;;;;;;5017872;28;20046;-80
2023/07/04 17:14:38;;;;;;;13.77;6.38;;;;;;;;;;5020789;28;20050;-81
2023/07/04 17:17:23;;;;;;;13.48;8.25;;;;;;;;;;5014665;28;20042;-79
2023/07/04 17:21:00;;;;;;;9.65;5.88;;;;;;;;;;5014059;28;20480;-79
2023/07/04 17:23:46;;;;;;;7.63;6.18;;;;;;;;;;5020979;28;20042;-79
2023/07/04 17:26:31;;;;;;;16.40;8.02;;;;;;;;;;5014237;28;20049;-78
2023/07/04 17:29:17;;;;;;;13.70;8.65;;;;;;;;;;5014293;28;20049;-75
2023/07/04 17:32:03;;;;;;;10.80;8.20;;;;;;;;;;5020577;28;20415;-78
2023/07/04 17:34:48;;;;;;;11.27;8.43;;;;;;;;;;5012248;28;20038;-76
2023/07/04 17:37:43;;;;;;;8.23;5.88;;;;;;;;;;5005511;28;20045;-80
2023/07/04 17:40:28;;;;;;;11.23;5.43;;;;;;;;;;5018405;28;20049;-79
2023/07/04 17:43:15;;;;;;;11.77;5.50;;;;;;;;;;5018707;28;20049;-81
2023/07/04 17:46:02;;;;;;;13.25;6.72;;;;;;;;;;5012163;28;20050;-78
2023/07/04 17:49:02;;;;;;;9.68;5.63;;;;;;;;;;5013222;28;20482;-75
2023/07/04 17:51:51;;;;;;;17.65;10.02;;;;;;;;;;5019137;28;20042;-76